Time;durP1;ratioP1;P1;durP2;ratioP2;P2;SDS_P1;SDS_P2;PMS_P1;PMS_P2;Temp;Humidity;BMP_temperature;BMP_pressure;BME280_temperature;BME280_humidity;BME280_pressure;Samples;Min_cycle;Max_cycle;Signal;HPM_P1;HPM_P2
2023/08/26 00:02:10;;;;;;;8.43;6.78;;;16.80;99.90;;;;;;4839233;29;20556;-85
2023/08/26 00:04:36;;;;;;;8.32;6.93;;;16.70;99.90;;;;;;4826275;29;20547;-85
2023/08/26 00:07:02;;;;;;;10.40;6.57;;;16.70;99.90;;;;;;4822754;29;20045;-85
2023/08/26 00:09:28;;;;;;;8.43;6.90;;;16.80;99.90;;;;;;4806219;29;20113;-86
2023/08/26 00:11:54;;;;;;;7.20;6.10;;;16.70;99.90;;;;;;4815547;29;20037;-85
2023/08/26 00:14:19;;;;;;;7.30;6.20;;;16.60;99.90;;;;;;4823264;29;20597;-85
2023/08/26 00:16:45;;;;;;;8.18;6.28;;;16.60;99.90;;;;;;4811105;29;20052;-85
2023/08/26 00:19:11;;;;;;;6.82;6.07;;;16.60;99.90;;;;;;4824380;29;20049;-86
2023/08/26 00:21:37;;;;;;;6.93;5.35;;;16.60;99.90;;;;;;4823636;29;20068;-85
2023/08/26 00:24:04;;;;;;;7.60;5.60;;;16.60;99.90;;;;;;4819851;29;20057;-85
2023/08/26 00:26:30;;;;;;;8.30;5.80;;;16.50;99.90;;;;;;4825369;29;20427;-85
2023/08/26 00:28:56;;;;;;;6.10;5.43;;;16.40;99.90;;;;;;4807660;29;20049;-85
2023/08/26 00:31:22;;;;;;;8.07;5.50;;;16.30;99.90;;;;;;4837936;29;20050;-85
2023/08/26 00:33:48;;;;;;;7.32;5.75;;;16.50;99.90;;;;;;4837464;29;20053;-85
2023/08/26 00:36:14;;;;;;;7.18;5.93;;;16.50;99.90;;;;;;4822467;29;20136;-84
2023/08/26 00:38:39;;;;;;;6.80;5.45;;;16.50;99.90;;;;;;4809016;29;20521;-85
2023/08/26 00:41:05;;;;;;;7.68;5.47;;;16.30;99.90;;;;;;4832502;29;20124;-86
2023/08/26 00:43:31;;;;;;;6.80;5.40;;;16.40;99.90;;;;;;4815546;29;20095;-86
2023/08/26 00:45:58;;;;;;;6.05;5.30;;;16.30;99.90;;;;;;4815948;29;20107;-85
2023/08/26 00:48:24;;;;;;;6.57;4.95;;;16.40;99.90;;;;;;4817924;29;20049;-86
2023/08/26 00:50:53;;;;;;;7.20;4.78;;;16.20;99.90;;;;;;4826081;29;20033;-85
2023/08/26 00:53:22;;;;;;;7.78;4.35;;;16.30;99.90;;;;;;4823195;29;20068;-85
2023/08/26 00:55:50;;;;;;;8.02;4.78;;;16.30;99.90;;;;;;4818575;29;20510;-86
2023/08/26 00:58:17;;;;;;;5.13;4.63;;;16.20;99.90;;;;;;4818648;29;20081;-86
2023/08/26 01:00:43;;;;;;;6.57;5.55;;;16.30;99.90;;;;;;4803202;29;20298;-86
2023/08/26 01:03:09;;;;;;;5.65;4.65;;;16.20;99.90;;;;;;4809098;29;20525;-87
2023/08/26 01:05:34;;;;;;;5.78;4.35;;;16.10;99.90;;;;;;4835913;29;20053;-86
2023/08/26 01:08:02;;;;;;;8.95;4.35;;;16.10;99.90;;;;;;4833888;29;20105;-86
2023/08/26 01:10:56;;;;;;;5.05;3.80;;;16.20;99.90;;;;;;4820589;29;20075;-86
2023/08/26 01:13:29;;;;;;;5.25;4.13;;;16.10;99.90;;;;;;4819696;29;20075;-86
2023/08/26 01:15:57;;;;;;;5.93;3.85;;;16.10;99.90;;;;;;4817935;29;20478;-87
2023/08/26 01:18:23;;;;;;;;;;;16.00;99.90;;;;;;4807584;29;20073;-86
2023/08/26 01:20:48;;;;;;;6.00;3.63;;;15.90;99.90;;;;;;4818564;29;19924;-87
2023/08/26 01:23:21;;;;;;;5.28;3.70;;;15.90;99.90;;;;;;4834622;29;20067;-87
2023/08/26 01:25:47;;;;;;;5.65;3.38;;;16.00;99.90;;;;;;4826897;29;20076;-87
2023/08/26 01:28:13;;;;;;;4.35;3.33;;;15.90;99.90;;;;;;4825669;29;20859;-87
2023/08/26 01:30:39;;;;;;;5.05;3.63;;;15.90;99.90;;;;;;4807747;29;20085;-88
2023/08/26 01:33:18;;;;;;;4.63;3.60;;;15.80;99.90;;;;;;4825633;29;20224;-88
2023/08/26 01:35:47;;;;;;;5.38;3.78;;;15.90;99.90;;;;;;4818902;29;20045;-88
2023/08/26 01:38:15;;;;;;;5.18;3.30;;;15.90;99.90;;;;;;4816026;29;20056;-89
2023/08/26 01:40:48;;;;;;;4.20;3.33;;;15.90;99.90;;;;;;4819119;29;20049;-89
2023/08/26 01:43:14;;;;;;;4.95;3.83;;;15.80;99.90;;;;;;4824119;29;20050;-89
2023/08/26 01:45:40;;;;;;;5.57;3.50;;;15.70;99.90;;;;;;4797187;29;20085;-89
2023/08/26 01:48:06;;;;;;;5.18;3.35;;;15.80;99.90;;;;;;4823175;29;20084;-91
2023/08/26 01:50:31;;;;;;;7.00;3.55;;;15.70;99.90;;;;;;4825103;29;20045;-89
2023/08/26 01:52:57;;;;;;;3.78;2.95;;;15.70;99.90;;;;;;4810352;29;20049;-89
2023/08/26 01:55:23;;;;;;;3.80;2.90;;;15.60;99.90;;;;;;4801923;29;20502;-92
2023/08/26 01:57:48;;;;;;;6.72;2.78;;;15.60;99.90;;;;;;4812467;29;20136;-89
2023/08/26 02:00:15;;;;;;;4.20;2.80;;;;;;;;;;4826075;29;20450;-91
2023/08/26 02:02:41;;;;;;;4.50;2.88;;;15.60;99.90;;;;;;4804695;29;20098;-90
2023/08/26 02:05:07;;;;;;;3.97;2.70;;;15.50;99.90;;;;;;4826904;29;20077;-92
2023/08/26 02:07:33;;;;;;;3.60;2.42;;;15.50;99.90;;;;;;4822511;29;20470;-90
2023/08/26 02:09:59;;;;;;;4.10;2.90;;;15.40;99.90;;;;;;4808107;29;20045;-89
2023/08/26 02:12:25;;;;;;;3.90;2.60;;;;;;;;;;4812060;29;20097;-90
2023/08/26 02:14:50;;;;;;;5.68;2.78;;;15.40;99.90;;;;;;4808656;29;21145;-90
2023/08/26 02:17:16;;;;;;;3.95;2.65;;;15.30;99.90;;;;;;4824506;29;20527;-89
2023/08/26 02:19:42;;;;;;;4.80;2.70;;;15.30;99.90;;;;;;4822899;29;20057;-91
2023/08/26 02:22:08;;;;;;;3.80;2.70;;;15.30;99.90;;;;;;4799366;29;20083;-92
2023/08/26 02:24:34;;;;;;;2.80;2.38;;;15.20;99.90;;;;;;4804725;29;20081;-89
2023/08/26 02:27:00;;;;;;;4.50;2.67;;;15.20;99.90;;;;;;4802282;29;20132;-90
2023/08/26 02:29:26;;;;;;;4.53;2.40;;;15.10;99.90;;;;;;4812095;29;20117;-90
2023/08/26 02:31:52;;;;;;;2.92;2.13;;;15.10;99.90;;;;;;4831389;29;20132;-90
2023/08/26 02:34:17;;;;;;;3.10;2.45;;;15.10;99.90;;;;;;4809782;29;20198;-89
2023/08/26 02:36:43;;;;;;;6.90;2.97;;;15.00;99.90;;;;;;4793727;29;20049;-89
2023/08/26 02:39:09;;;;;;;8.95;2.75;;;15.00;99.90;;;;;;4828554;29;20488;-89
2023/08/26 02:41:34;;;;;;;5.30;2.50;;;14.90;99.90;;;;;;4820956;29;20118;-89
2023/08/26 02:44:00;;;;;;;4.18;3.05;;;15.00;99.90;;;;;;4821400;29;20077;-89
2023/08/26 02:46:26;;;;;;;5.93;3.08;;;14.90;99.90;;;;;;4804157;29;20133;-89
2023/08/26 02:48:52;;;;;;;4.38;2.67;;;14.80;99.90;;;;;;4786035;29;20565;-89
2023/08/26 02:51:17;;;;;;;5.82;2.90;;;14.80;99.90;;;;;;4830876;29;20049;-89
2023/08/26 02:53:43;;;;;;;6.00;3.10;;;14.90;99.90;;;;;;4820072;29;20086;-89
2023/08/26 02:56:09;;;;;;;5.03;3.10;;;14.90;99.90;;;;;;4842010;29;20458;-89
2023/08/26 02:58:34;;;;;;;3.75;2.80;;;14.80;99.90;;;;;;4823671;29;20049;-89
2023/08/26 03:01:01;;;;;;;5.25;3.22;;;14.80;99.90;;;;;;4829069;29;20482;-89
2023/08/26 03:03:27;;;;;;;6.22;2.80;;;14.70;99.90;;;;;;4825212;29;20049;-90
2023/08/26 03:05:59;;;;;;;5.95;3.03;;;14.70;99.90;;;;;;4844357;29;20044;-89
2023/08/26 03:08:26;;;;;;;5.40;2.80;;;14.70;99.90;;;;;;4817634;29;20489;-90
2023/08/26 03:10:57;;;;;;;4.55;3.38;;;14.60;99.90;;;;;;4825257;29;20048;-90
2023/08/26 03:13:22;;;;;;;4.85;3.03;;;14.70;99.90;;;;;;4836040;29;20506;-89
2023/08/26 03:15:48;;;;;;;4.90;3.10;;;14.70;99.90;;;;;;4817571;29;20323;-90
2023/08/26 03:18:14;;;;;;;3.65;2.80;;;14.70;99.90;;;;;;4822166;29;20459;-90
2023/08/26 03:20:39;;;;;;;5.53;2.85;;;14.50;99.90;;;;;;4806850;29;20049;-90
2023/08/26 03:23:05;;;;;;;6.00;2.75;;;14.60;99.90;;;;;;4827263;29;20137;-91
2023/08/26 03:25:31;;;;;;;4.57;2.50;;;14.60;99.90;;;;;;4812315;29;20494;-90
2023/08/26 03:27:56;;;;;;;6.68;2.60;;;14.50;99.90;;;;;;4811581;29;20049;-89
2023/08/26 03:30:22;;;;;;;4.82;2.63;;;14.50;99.90;;;;;;4821625;29;20057;-89
2023/08/26 03:32:48;;;;;;;3.40;2.40;;;14.50;99.90;;;;;;4821716;29;20746;-88
2023/08/26 03:35:13;;;;;;;4.53;2.50;;;14.40;99.90;;;;;;4832812;29;20560;-88
2023/08/26 03:37:39;;;;;;;3.88;2.90;;;14.40;99.90;;;;;;4830527;29;20047;-88
2023/08/26 03:40:08;;;;;;;4.70;2.40;;;14.40;99.90;;;;;;4818192;29;20098;-88
2023/08/26 03:42:34;;;;;;;3.25;2.33;;;14.30;99.90;;;;;;4803180;29;20045;-88
2023/08/26 03:45:00;;;;;;;5.07;2.25;;;14.40;99.90;;;;;;4816334;29;20089;-88
2023/08/26 03:47:25;;;;;;;2.70;2.20;;;14.30;99.90;;;;;;4815901;29;20041;-88
2023/08/26 03:49:51;;;;;;;2.47;2.10;;;14.30;99.90;;;;;;4800830;29;20072;-89
2023/08/26 03:52:17;;;;;;;4.07;2.30;;;14.20;99.90;;;;;;4791757;29;20041;-89
2023/08/26 03:54:43;;;;;;;3.30;2.05;;;14.20;99.90;;;;;;4826289;29;20057;-88
2023/08/26 03:57:08;;;;;;;3.97;2.35;;;14.20;99.90;;;;;;4825078;29;20132;-88
2023/08/26 03:59:34;;;;;;;3.60;2.17;;;14.20;99.90;;;;;;4841918;29;20037;-88
2023/08/26 04:02:00;;;;;;;3.08;2.17;;;14.20;99.90;;;;;;4798326;29;20069;-88
2023/08/26 04:04:26;;;;;;;3.63;1.83;;;14.10;99.90;;;;;;4816435;29;20421;-88
2023/08/26 04:06:52;;;;;;;4.70;2.17;;;14.10;99.90;;;;;;4792589;29;20045;-88
2023/08/26 04:09:18;;;;;;;4.45;1.80;;;14.00;99.90;;;;;;4830547;29;20580;-88
2023/08/26 04:11:43;;;;;;;4.47;1.90;;;14.10;99.90;;;;;;4809583;29;20433;-88
2023/08/26 04:14:09;;;;;;;3.65;1.90;;;14.20;99.90;;;;;;4803887;29;20045;-88
2023/08/26 04:16:35;;;;;;;2.80;1.77;;;14.10;99.90;;;;;;4812213;29;20057;-88
2023/08/26 04:19:01;;;;;;;3.25;2.15;;;14.10;99.90;;;;;;4793189;29;20501;-88
2023/08/26 04:21:27;;;;;;;4.07;1.70;;;14.20;99.90;;;;;;4804482;29;20053;-88
2023/08/26 04:23:53;;;;;;;4.70;1.75;;;14.10;99.90;;;;;;4818463;29;20057;-88
2023/08/26 04:26:18;;;;;;;5.50;2.40;;;14.20;99.90;;;;;;4808486;29;20046;-88
2023/08/26 04:28:44;;;;;;;4.45;2.08;;;14.10;99.90;;;;;;4838037;29;20041;-88
2023/08/26 04:31:10;;;;;;;2.97;2.05;;;14.20;99.90;;;;;;4793208;29;20053;-87
2023/08/26 04:33:36;;;;;;;3.88;2.00;;;14.20;99.90;;;;;;4828765;29;20049;-88
2023/08/26 04:36:02;;;;;;;3.08;2.20;;;14.20;99.90;;;;;;4795295;29;20516;-88
2023/08/26 04:38:28;;;;;;;3.65;2.03;;;14.10;99.90;;;;;;4815480;29;20042;-88
2023/08/26 04:40:53;;;;;;;2.50;1.90;;;14.20;99.90;;;;;;4825820;29;20107;-87
2023/08/26 04:43:19;;;;;;;4.35;2.00;;;14.20;99.90;;;;;;4793258;29;20158;-88
2023/08/26 04:45:45;;;;;;;4.38;2.30;;;14.40;99.90;;;;;;4827203;29;20097;-88
2023/08/26 04:48:10;;;;;;;3.78;1.95;;;14.40;99.90;;;;;;4815730;29;20336;-88
2023/08/26 04:50:36;;;;;;;3.83;1.92;;;14.40;99.90;;;;;;4819638;29;20108;-88
2023/08/26 04:53:02;;;;;;;3.83;2.30;;;14.50;99.90;;;;;;4821690;29;20053;-88
2023/08/26 04:55:28;;;;;;;3.28;2.17;;;14.30;99.90;;;;;;4802501;29;20372;-88
2023/08/26 04:57:55;;;;;;;3.63;2.50;;;14.50;99.90;;;;;;4818075;29;20082;-88
2023/08/26 05:00:21;;;;;;;;;;;14.40;99.90;;;;;;4807120;29;20442;-88
2023/08/26 05:02:47;;;;;;;5.78;2.35;;;14.60;99.90;;;;;;4808722;29;19924;-88
2023/08/26 05:05:13;;;;;;;4.05;2.40;;;14.50;99.90;;;;;;4809340;29;20128;-87
2023/08/26 05:07:39;;;;;;;3.33;2.23;;;14.50;99.90;;;;;;4819931;29;20076;-87
2023/08/26 05:10:05;;;;;;;3.20;2.42;;;14.70;99.90;;;;;;4805272;29;20506;-88
2023/08/26 05:12:31;;;;;;;4.88;2.35;;;14.70;99.90;;;;;;4823422;29;20046;-88
2023/08/26 05:14:57;;;;;;;5.88;3.10;;;14.60;99.90;;;;;;4838444;29;20517;-88
2023/08/26 05:17:23;;;;;;;4.30;2.45;;;14.70;99.90;;;;;;4822448;29;20060;-88
2023/08/26 05:19:48;;;;;;;4.07;2.80;;;14.80;99.90;;;;;;4822536;29;20486;-88
2023/08/26 05:22:14;;;;;;;5.80;2.85;;;15.00;99.90;;;;;;4791351;29;20091;-88
2023/08/26 05:24:40;;;;;;;3.67;2.58;;;14.90;99.90;;;;;;4803607;29;20065;-87
2023/08/26 05:27:06;;;;;;;5.78;2.80;;;15.10;99.90;;;;;;4818982;29;20037;-87
2023/08/26 05:29:31;;;;;;;5.40;2.63;;;15.10;99.90;;;;;;4842878;29;20073;-88
2023/08/26 05:31:57;;;;;;;3.97;2.95;;;15.20;99.90;;;;;;4822818;29;20041;-87
2023/08/26 05:34:26;;;;;;;3.85;2.80;;;15.30;99.90;;;;;;4822656;29;20498;-84
2023/08/26 05:36:52;;;;;;;4.28;2.65;;;15.30;99.90;;;;;;4818624;29;20129;-88
2023/08/26 05:39:17;;;;;;;4.00;3.00;;;15.20;99.90;;;;;;4805872;29;20152;-86
2023/08/26 05:41:44;;;;;;;3.85;3.45;;;;;;;;;;4819404;29;20137;-88
2023/08/26 05:44:09;;;;;;;4.72;3.85;;;15.60;99.90;;;;;;4831839;29;20056;-88
2023/08/26 05:46:35;;;;;;;6.15;4.00;;;15.40;99.90;;;;;;4823729;29;20046;-88
2023/08/26 05:49:01;;;;;;;4.57;3.55;;;15.40;99.90;;;;;;4809993;29;20538;-87
2023/08/26 05:51:27;;;;;;;5.55;3.08;;;15.40;99.90;;;;;;4835040;29;20050;-88
2023/08/26 05:53:53;;;;;;;5.50;3.85;;;15.60;99.90;;;;;;4805739;29;20052;-88
2023/08/26 05:56:19;;;;;;;5.20;3.60;;;15.50;99.90;;;;;;4809791;29;20045;-88
2023/08/26 05:58:44;;;;;;;6.85;3.88;;;15.50;99.90;;;;;;4806917;29;20045;-88
2023/08/26 06:01:10;;;;;;;4.15;3.75;;;15.50;99.90;;;;;;4819097;29;20037;-88
2023/08/26 06:03:36;;;;;;;11.60;4.20;;;15.50;99.90;;;;;;4802250;29;20497;-88
2023/08/26 06:06:03;;;;;;;4.45;3.78;;;15.50;99.90;;;;;;4785206;29;20037;-88
2023/08/26 06:08:29;;;;;;;5.78;3.90;;;15.40;99.90;;;;;;4837425;29;20048;-87
2023/08/26 06:10:56;;;;;;;4.57;3.53;;;15.50;99.90;;;;;;4805533;29;20041;-85
2023/08/26 06:13:21;;;;;;;5.28;3.58;;;15.40;99.90;;;;;;4813872;29;20098;-85
2023/08/26 06:15:55;;;;;;;7.93;3.50;;;15.50;99.90;;;;;;4837522;29;20152;-85
2023/08/26 06:18:21;;;;;;;4.57;3.30;;;15.50;99.90;;;;;;4813113;29;20068;-86
2023/08/26 06:20:49;;;;;;;3.85;2.90;;;15.40;99.90;;;;;;4794634;29;20414;-89
2023/08/26 06:23:15;;;;;;;6.25;3.17;;;15.50;99.90;;;;;;4824892;29;20089;-86
2023/08/26 06:25:57;;;;;;;3.45;2.90;;;15.60;99.90;;;;;;4810899;29;20458;-85
2023/08/26 06:28:23;;;;;;;3.58;2.70;;;15.60;99.90;;;;;;4828628;29;20225;-84
2023/08/26 06:30:49;;;;;;;5.28;2.75;;;15.70;99.90;;;;;;4819962;29;20041;-85
2023/08/26 06:33:15;;;;;;;4.10;2.73;;;15.60;99.90;;;;;;4826164;29;20050;-85
2023/08/26 06:35:47;;;;;;;2.97;2.58;;;15.60;99.90;;;;;;4808143;29;20129;-84
2023/08/26 06:38:13;;;;;;;4.10;2.63;;;15.60;99.90;;;;;;4827596;29;20513;-84
2023/08/26 06:40:38;;;;;;;2.75;2.20;;;15.60;99.90;;;;;;4814845;29;20049;-85
2023/08/26 06:43:04;;;;;;;4.90;2.25;;;15.50;99.90;;;;;;4820286;29;20104;-84
2023/08/26 06:45:31;;;;;;;4.78;2.35;;;15.40;99.90;;;;;;4803119;29;20041;-84
2023/08/26 06:47:57;;;;;;;2.60;2.20;;;15.30;99.90;;;;;;4791578;29;20398;-86
2023/08/26 06:50:23;;;;;;;4.55;2.10;;;15.30;99.90;;;;;;4824623;29;20053;-84
2023/08/26 06:52:49;;;;;;;2.78;2.00;;;15.30;99.90;;;;;;4829087;29;20044;-84
2023/08/26 06:55:18;;;;;;;2.83;2.05;;;15.30;99.90;;;;;;4829388;29;20055;-84
2023/08/26 06:57:45;;;;;;;3.45;2.05;;;15.40;99.90;;;;;;4828396;29;20042;-84
2023/08/26 07:00:12;;;;;;;3.47;1.97;;;15.30;99.90;;;;;;4828256;29;20342;-84
2023/08/26 07:02:38;;;;;;;;;;;15.20;99.90;;;;;;4817392;29;20392;-84
2023/08/26 07:05:04;;;;;;;2.40;1.90;;;15.20;99.90;;;;;;4831050;29;19928;-84
2023/08/26 07:07:30;;;;;;;2.40;1.90;;;15.30;99.90;;;;;;4831289;29;20041;-85
2023/08/26 07:09:56;;;;;;;2.63;1.90;;;15.30;99.90;;;;;;4812047;29;20107;-85
2023/08/26 07:12:22;;;;;;;2.10;1.70;;;15.30;99.90;;;;;;4833346;29;20038;-86
2023/08/26 07:14:47;;;;;;;3.03;1.73;;;15.30;99.90;;;;;;4833472;29;20137;-86
2023/08/26 07:17:16;;;;;;;2.60;1.65;;;15.20;99.90;;;;;;4823809;29;20061;-85
2023/08/26 07:19:43;;;;;;;2.63;2.00;;;15.30;99.90;;;;;;4796002;29;20049;-86
2023/08/26 07:22:21;;;;;;;6.57;2.13;;;15.30;99.90;;;;;;4813398;29;20047;-86
2023/08/26 07:24:50;;;;;;;4.40;1.90;;;15.40;99.90;;;;;;4836556;29;20494;-85
2023/08/26 07:27:18;;;;;;;4.25;1.98;;;15.20;99.90;;;;;;4817649;29;20255;-87
2023/08/26 07:29:46;;;;;;;3.80;2.00;;;15.50;99.90;;;;;;4811989;29;20502;-86
2023/08/26 07:32:12;;;;;;;3.85;1.70;;;15.60;99.90;;;;;;4818294;29;20064;-84
2023/08/26 07:34:38;;;;;;;2.83;1.85;;;15.60;99.90;;;;;;4822981;29;20049;-87
2023/08/26 07:37:04;;;;;;;3.03;2.08;;;15.70;99.90;;;;;;4819545;29;20077;-88
2023/08/26 07:39:30;;;;;;;5.72;2.25;;;16.10;99.90;;;;;;4813494;29;20053;-88
2023/08/26 07:41:58;;;;;;;3.17;1.95;;;17.10;99.90;;;;;;4798112;29;20045;-88
2023/08/26 07:44:24;;;;;;;3.35;2.35;;;17.60;99.90;;;;;;4818962;29;20098;-87
2023/08/26 07:46:51;;;;;;;3.13;2.20;;;18.20;99.90;;;;;;4795606;29;20034;-87
2023/08/26 07:49:17;;;;;;;5.53;3.00;;;19.10;99.90;;;;;;4821490;29;20053;-88
2023/08/26 07:51:43;;;;;;;3.93;2.60;;;19.60;99.90;;;;;;4807358;29;20077;-87
2023/08/26 07:54:08;;;;;;;4.25;3.58;;;19.80;99.90;;;;;;4790435;29;20521;-87
2023/08/26 07:56:34;;;;;;;4.88;4.30;;;20.20;99.90;;;;;;4797524;29;20156;-91
2023/08/26 07:59:00;;;;;;;7.70;4.53;;;20.80;99.90;;;;;;4818530;29;20046;-89
2023/08/26 08:01:26;;;;;;;7.07;5.00;;;21.60;99.90;;;;;;4810793;29;20045;-87
2023/08/26 08:03:51;;;;;;;7.28;6.57;;;22.30;99.90;;;;;;4802095;29;20050;-89
2023/08/26 08:06:17;;;;;;;7.28;5.88;;;22.90;99.90;;;;;;4805300;29;20049;-87
2023/08/26 08:08:43;;;;;;;7.13;6.40;;;23.30;99.90;;;;;;4818509;29;20049;-91
2023/08/26 08:11:09;;;;;;;7.57;6.32;;;23.60;99.90;;;;;;4832160;29;20446;-88
2023/08/26 08:13:34;;;;;;;8.40;6.38;;;23.60;99.90;;;;;;4794988;29;20054;-92
2023/08/26 08:16:00;;;;;;;7.70;6.38;;;23.20;99.90;;;;;;4789714;29;20065;-87
2023/08/26 08:18:26;;;;;;;8.02;6.18;;;22.60;99.90;;;;;;4803754;29;20061;-89
2023/08/26 08:20:54;;;;;;;7.22;6.45;;;22.20;99.90;;;;;;4804383;29;20046;-88
2023/08/26 08:23:20;;;;;;;7.82;7.00;;;22.00;99.90;;;;;;4818641;29;20046;-86
2023/08/26 08:25:46;;;;;;;7.35;6.65;;;21.80;99.90;;;;;;4807254;29;20332;-87
2023/08/26 08:28:12;;;;;;;8.02;7.07;;;21.50;99.90;;;;;;4786299;29;20414;-86
2023/08/26 08:30:38;;;;;;;8.68;6.90;;;21.70;99.90;;;;;;4818319;29;20045;-89
2023/08/26 08:33:04;;;;;;;7.88;6.82;;;22.30;99.90;;;;;;4815073;29;20573;-88
2023/08/26 08:35:30;;;;;;;7.27;6.57;;;22.70;99.90;;;;;;4792828;29;20037;-86
2023/08/26 08:37:56;;;;;;;7.85;6.85;;;22.80;99.90;;;;;;4811811;29;20991;-88
2023/08/26 08:40:22;;;;;;;9.70;6.87;;;23.00;99.90;;;;;;4821052;29;20053;-89
2023/08/26 08:42:49;;;;;;;8.10;6.70;;;23.30;99.90;;;;;;4818835;29;20045;-87
2023/08/26 08:45:18;;;;;;;7.38;6.68;;;23.20;99.90;;;;;;4836380;29;20490;-88
2023/08/26 08:47:45;;;;;;;8.82;7.22;;;23.30;99.90;;;;;;4822586;29;20574;-87
2023/08/26 08:50:13;;;;;;;7.28;6.53;;;23.80;99.90;;;;;;4801405;29;20101;-93
2023/08/26 08:52:41;;;;;;;7.72;6.07;;;24.10;99.90;;;;;;4832058;29;20573;-87
2023/08/26 08:55:08;;;;;;;6.88;5.90;;;24.00;99.90;;;;;;4815870;29;20049;-86
2023/08/26 08:57:35;;;;;;;6.63;6.13;;;23.90;99.90;;;;;;4836973;29;20117;-87
2023/08/26 09:00:03;;;;;;;5.95;5.35;;;23.90;99.90;;;;;;4819919;29;20092;-88
2023/08/26 09:02:29;;;;;;;6.78;5.50;;;23.70;99.90;;;;;;4784216;29;20053;-90
2023/08/26 09:04:55;;;;;;;5.95;5.35;;;23.40;99.90;;;;;;4832952;29;20056;-87
2023/08/26 09:07:22;;;;;;;8.30;5.88;;;23.00;99.90;;;;;;4821604;29;20041;-88
2023/08/26 09:09:48;;;;;;;;;;;22.70;99.90;;;;;;4823704;29;20083;-88
2023/08/26 09:12:14;;;;;;;5.97;5.47;;;22.40;99.90;;;;;;4823600;29;19971;-91
2023/08/26 09:14:39;;;;;;;6.53;5.03;;;22.40;99.90;;;;;;4826266;29;20109;-85
2023/08/26 09:17:16;;;;;;;5.65;5.18;;;22.30;99.90;;;;;;4815827;29;20053;-90
2023/08/26 09:19:58;;;;;;;4.60;4.20;;;22.20;99.90;;;;;;4820266;29;20056;-87
2023/08/26 09:22:28;;;;;;;7.32;4.60;;;22.20;99.90;;;;;;4831632;29;20080;-89
2023/08/26 09:25:01;;;;;;;5.63;4.93;;;22.20;99.90;;;;;;4821085;29;20053;-87
2023/08/26 09:27:27;;;;;;;6.05;4.05;;;22.20;99.90;;;;;;4817303;29;20398;-89
2023/08/26 09:29:54;;;;;;;6.17;4.47;;;22.20;99.90;;;;;;4821575;29;20049;-90
2023/08/26 09:32:48;;;;;;;4.20;3.80;;;22.20;99.90;;;;;;4826154;29;20049;-93
2023/08/26 09:35:17;;;;;;;3.92;3.53;;;22.20;99.90;;;;;;4834271;29;20354;-94
2023/08/26 09:37:46;;;;;;;4.45;4.00;;;22.10;99.90;;;;;;4804530;29;20041;-93
2023/08/26 09:40:18;;;;;;;5.60;4.07;;;22.10;99.90;;;;;;4815721;29;20046;-86
2023/08/26 09:42:44;;;;;;;5.38;3.80;;;22.10;99.90;;;;;;4811850;29;20049;-85
2023/08/26 09:45:13;;;;;;;4.75;4.00;;;22.30;99.90;;;;;;4806384;29;20065;-87
2023/08/26 09:47:39;;;;;;;4.55;3.88;;;22.30;99.90;;;;;;4805057;29;20038;-90
2023/08/26 09:50:07;;;;;;;4.28;3.50;;;22.40;99.90;;;;;;4813420;29;20046;-90
2023/08/26 09:52:53;;;;;;;4.57;3.60;;;22.50;99.90;;;;;;4819369;29;20056;-87
2023/08/26 09:55:21;;;;;;;5.82;3.47;;;22.30;99.90;;;;;;4824548;29;20125;-93
2023/08/26 09:57:47;;;;;;;5.35;3.55;;;22.10;99.90;;;;;;4846876;29;20792;-90
2023/08/26 10:00:16;;;;;;;4.95;3.53;;;21.90;99.90;;;;;;4801780;29;20259;-91
2023/08/26 10:02:50;;;;;;;4.57;3.20;;;21.90;99.90;;;;;;4836770;29;20059;-85
2023/08/26 10:10:22;;;;;;;4.30;3.03;;;22.30;99.90;;;;;;4776654;29;20047;-92
2023/08/26 10:12:49;;;;;;;4.35;2.95;;;22.40;99.90;;;;;;4808716;29;20057;-88
2023/08/26 10:15:18;;;;;;;3.38;2.60;;;22.50;99.90;;;;;;4820768;29;20506;-93
2023/08/26 10:17:48;;;;;;;4.82;2.60;;;22.20;99.90;;;;;;4804118;29;20488;-86
2023/08/26 10:20:14;;;;;;;5.50;2.95;;;22.00;99.90;;;;;;4815426;29;20049;-83
2023/08/26 10:22:40;;;;;;;5.28;2.97;;;21.70;99.90;;;;;;4819746;29;20049;-83
2023/08/26 10:25:09;;;;;;;3.85;2.80;;;21.50;99.90;;;;;;4815653;29;20056;-84
2023/08/26 10:27:36;;;;;;;4.65;2.90;;;21.20;99.90;;;;;;4823165;29;20088;-83
2023/08/26 10:30:04;;;;;;;3.95;2.90;;;21.00;99.90;;;;;;4818978;29;20492;-85
2023/08/26 10:32:30;;;;;;;4.28;2.97;;;20.70;99.90;;;;;;4840445;29;20109;-84
2023/08/26 10:35:00;;;;;;;2.97;1.60;;;19.90;99.90;;;;;;4827347;29;20049;-89
2023/08/26 10:37:31;;;;;;;3.50;1.17;;;19.50;99.90;;;;;;4831892;29;20052;-88
2023/08/26 10:40:03;;;;;;;2.92;1.08;;;19.00;99.90;;;;;;4811173;29;20054;-86
2023/08/26 10:42:29;;;;;;;6.00;1.20;;;18.40;99.90;;;;;;4823888;29;20044;-91
2023/08/26 10:44:57;;;;;;;11.85;2.50;;;18.00;99.90;;;;;;4813559;29;20057;-91
2023/08/26 10:47:36;;;;;;;7.22;1.90;;;17.60;99.90;;;;;;4828303;29;20043;-90
2023/08/26 10:50:18;;;;;;;6.10;1.55;;;17.20;99.90;;;;;;4830804;29;20041;-88
2023/08/26 10:52:56;;;;;;;5.82;1.55;;;17.00;99.90;;;;;;4832283;29;20033;-90
2023/08/26 10:55:30;;;;;;;;;;;16.70;99.90;;;;;;4827549;29;20537;-90
2023/08/26 10:58:08;;;;;;;2.97;1.40;;;16.50;99.90;;;;;;4834973;29;20064;-90
2023/08/26 11:00:34;;;;;;;4.38;1.50;;;16.40;99.90;;;;;;4824789;29;20442;-89
2023/08/26 11:03:04;;;;;;;3.77;1.37;;;16.40;99.90;;;;;;4799711;29;20338;-88
2023/08/26 11:05:30;;;;;;;3.50;1.38;;;16.50;99.90;;;;;;4811277;29;20494;-88
2023/08/26 11:07:57;;;;;;;4.13;1.10;;;16.50;99.90;;;;;;4817865;29;20069;-90
2023/08/26 11:10:34;;;;;;;2.47;1.17;;;16.60;99.90;;;;;;4824641;29;20049;-88
2023/08/26 11:13:03;;;;;;;3.03;1.02;;;16.70;99.90;;;;;;4801328;29;20449;-88
2023/08/26 11:15:45;;;;;;;2.53;0.80;;;16.90;99.90;;;;;;4836920;29;20110;-89
2023/08/26 11:18:12;;;;;;;1.95;0.60;;;17.20;99.90;;;;;;4817162;29;20068;-87
2023/08/26 11:20:38;;;;;;;2.92;0.70;;;17.30;99.90;;;;;;4822481;29;20041;-89
2023/08/26 11:23:06;;;;;;;3.07;0.70;;;17.50;99.90;;;;;;4818130;29;20260;-88
2023/08/26 11:25:33;;;;;;;2.83;0.73;;;17.60;99.90;;;;;;4817727;29;20048;-88
2023/08/26 11:28:04;;;;;;;2.50;0.60;;;17.70;99.90;;;;;;4811286;29;20045;-88
2023/08/26 11:30:30;;;;;;;2.22;0.90;;;17.80;99.90;;;;;;4826698;29;20465;-87
2023/08/26 11:32:59;;;;;;;1.10;0.85;;;17.80;99.90;;;;;;4833081;29;20041;-87
2023/08/26 11:35:25;;;;;;;2.55;1.00;;;17.90;99.90;;;;;;4835174;29;20053;-88
2023/08/26 11:37:54;;;;;;;2.47;1.30;;;18.10;99.90;;;;;;4815349;29;20041;-90
2023/08/26 11:40:20;;;;;;;1.50;1.20;;;18.10;99.90;;;;;;4788565;29;20406;-88
2023/08/26 11:42:48;;;;;;;2.00;1.45;;;18.20;99.90;;;;;;4821099;29;20041;-88
2023/08/26 11:45:14;;;;;;;4.30;2.28;;;18.40;99.90;;;;;;4807821;29;20050;-89
2023/08/26 11:47:40;;;;;;;3.40;2.10;;;18.50;99.90;;;;;;4816013;29;20040;-86
2023/08/26 11:50:08;;;;;;;3.25;2.03;;;18.70;99.90;;;;;;4816990;29;20049;-90
2023/08/26 11:52:38;;;;;;;3.90;2.50;;;18.70;99.90;;;;;;4831873;29;20505;-85
2023/08/26 11:55:06;;;;;;;4.22;2.83;;;18.80;99.90;;;;;;4834416;29;20050;-88
2023/08/26 11:57:39;;;;;;;4.47;3.10;;;18.90;99.90;;;;;;4815028;29;20045;-85
2023/08/26 12:00:13;;;;;;;4.88;2.90;;;18.90;99.90;;;;;;4814558;29;20390;-87
2023/08/26 12:02:44;;;;;;;5.53;2.90;;;18.90;99.90;;;;;;4824136;29;20080;-87
2023/08/26 12:05:11;;;;;;;3.90;3.35;;;18.80;99.90;;;;;;4830106;29;20065;-86
2023/08/26 12:07:46;;;;;;;4.85;3.63;;;18.70;99.90;;;;;;4828278;29;20175;-87
2023/08/26 12:10:19;;;;;;;3.88;2.88;;;18.60;99.90;;;;;;4805418;29;20073;-87
2023/08/26 12:12:47;;;;;;;5.10;3.25;;;18.50;99.90;;;;;;4836429;29;20041;-88
2023/08/26 12:15:19;;;;;;;5.28;3.22;;;18.40;99.90;;;;;;4814680;29;20053;-88
2023/08/26 12:17:54;;;;;;;6.28;4.20;;;18.40;99.90;;;;;;4833993;29;20110;-86
2023/08/26 12:20:25;;;;;;;4.55;3.20;;;18.40;99.90;;;;;;4826533;29;20599;-87
2023/08/26 12:22:53;;;;;;;4.10;3.22;;;18.40;99.90;;;;;;4823480;29;20046;-88
2023/08/26 12:25:33;;;;;;;4.75;3.08;;;18.40;99.90;;;;;;4815796;29;20198;-86
2023/08/26 12:28:08;;;;;;;4.28;3.65;;;18.30;99.90;;;;;;4829559;29;20067;-85
2023/08/26 12:30:36;;;;;;;4.35;3.63;;;18.40;99.90;;;;;;4821694;29;20041;-84
2023/08/26 12:33:03;;;;;;;5.45;3.80;;;18.60;99.90;;;;;;4825080;29;20248;-82
2023/08/26 12:35:29;;;;;;;5.25;4.55;;;18.80;99.90;;;;;;4825436;29;20054;-83
2023/08/26 12:37:55;;;;;;;5.50;4.30;;;19.20;99.90;;;;;;4820525;29;20033;-88
2023/08/26 12:40:21;;;;;;;5.03;4.43;;;19.30;99.90;;;;;;4837328;29;20045;-84
2023/08/26 12:42:47;;;;;;;5.15;3.85;;;19.40;99.90;;;;;;4814508;29;20106;-88
2023/08/26 12:45:13;;;;;;;4.07;3.40;;;19.50;99.90;;;;;;4827789;29;20064;-81
2023/08/26 12:47:39;;;;;;;4.47;3.67;;;19.60;99.90;;;;;;4813993;29;20038;-81
2023/08/26 12:50:08;;;;;;;3.53;3.20;;;19.60;99.90;;;;;;4815454;29;20107;-82
2023/08/26 12:52:33;;;;;;;4.60;2.20;;;19.50;99.90;;;;;;4783322;29;20186;-83
2023/08/26 12:54:59;;;;;;;2.60;1.35;;;19.40;99.90;;;;;;4819835;29;20534;-84